Weather History for Oelwein, IA

Change the Weather History Date:

Saturday, June 29, 2013

  Actual Average Record
Temperature  
Mean Temperature 66 °F -  
Max Temperature 71 °F 81 °F 95 °F (1970)
Min Temperature 62 °F 60 °F 44 °F (1951)
Cooling Degree Days 2    
Growing Degree Days 16 (Base 50)    
Moisture  
Dew Point 61 °F    
Average Humidity 84    
Maximum Humidity 100    
Minimum Humidity 68    
Precipitation  
Precipitation 0.02 in - - ()
Sea Level Pressure  
Sea Level Pressure 29.79 in    
Wind  
Wind Speed 12 mph (North)    
Max Wind Speed 23 mph    
Max Gust Speed 31 mph    
Visibility 10 miles    
Events Rain    
Averages and records for this station are not official NWS values.
T = Trace of Precipitation, MM = Missing Value Source: NWS Daily Summary

Daily Weather History Graph

Daily Weather History Graph

Search for Another Location

Airport:

Trip Planner

Search our weather history database for the weather conditions in past years. The results will help you decide how hot, cold, wet, or windy it might be!

Date:

Astronomy

Jun. 29, 2013 Rise Set
Actual Time 5:32 AM CDT 8:49 PM CDT
Civil Twilight 4:57 AM CDT 9:24 PM CDT
Nautical Twilight 4:12 AM CDT 10:09 PM CDT
Astronomical Twilight 3:17 AM CDT 11:05 PM CDT
Moon 12:09 AM CDT (6/29) 12:55 PM CDT (6/29)
Length of Visible Light 16h 26m
Length of Day
15h 17m
Waning Gibbous, 55% of the Moon is Illuminated
Jun 29
Waning Gibbous
Jun 29
Last Quarter
Jul 8
New
Jul 15
First Quarter
Jul 22
Full

Hourly Weather History & Observations

Time (CDT) Temp. Dew Point Humidity Pressure Visibility Wind Dir Wind Speed Gust Speed Precip Events Conditions
12:15 AM 66.2 °F 62.6 °F 88% 29.73 in 10.0 mi NW 12.7 mph - N/A   Partly Cloudy
12:35 AM 64.4 °F 62.6 °F 94% 29.73 in 10.0 mi NW 11.5 mph - N/A   Partly Cloudy
12:55 AM 64.4 °F 60.8 °F 88% 29.73 in 10.0 mi NNW 11.5 mph - N/A   Clear
1:15 AM 64.4 °F 60.8 °F 88% 29.73 in 10.0 mi NNW 11.5 mph - N/A   Clear
1:35 AM 64.4 °F 60.8 °F 88% 29.72 in 10.0 mi NW 10.4 mph - N/A   Clear
1:55 AM 64.4 °F 60.8 °F 88% 29.73 in 10.0 mi NNW 11.5 mph - N/A   Clear
2:15 AM 64.4 °F 60.8 °F 88% 29.72 in 10.0 mi NNW 11.5 mph - N/A   Clear
2:35 AM 64.4 °F 60.8 °F 88% 29.72 in 10.0 mi NNW 10.4 mph - N/A   Clear
2:55 AM 62.6 °F 62.6 °F 100% 29.72 in 10.0 mi NW 11.5 mph - N/A   Clear
3:15 AM 62.6 °F 62.6 °F 100% 29.73 in 10.0 mi NW 11.5 mph - N/A   Clear
3:35 AM 62.6 °F 62.6 °F 100% 29.73 in 10.0 mi NW 9.2 mph - N/A   Scattered Clouds
3:55 AM 62.6 °F 62.6 °F 100% 29.73 in 10.0 mi NW 12.7 mph - N/A   Partly Cloudy
4:15 AM 62.6 °F 60.8 °F 94% 29.72 in 10.0 mi NW 9.2 mph - N/A   Clear
4:35 AM 62.6 °F 60.8 °F 94% 29.73 in 10.0 mi NW 9.2 mph - N/A   Clear
4:55 AM 62.6 °F 62.6 °F 100% 29.73 in 10.0 mi NW 11.5 mph - N/A   Mostly Cloudy
5:15 AM 64.4 °F 62.6 °F 94% 29.73 in 10.0 mi NW 11.5 mph - N/A   Overcast
5:35 AM 64.4 °F 62.6 °F 94% 29.73 in 10.0 mi NW 10.4 mph - N/A   Overcast
5:55 AM 64.4 °F 62.6 °F 94% 29.74 in 10.0 mi NNW 9.2 mph - N/A   Mostly Cloudy
6:15 AM 64.4 °F 62.6 °F 94% 29.74 in 10.0 mi NNW 10.4 mph - N/A   Overcast
6:35 AM 64.4 °F 62.6 °F 94% 29.74 in 10.0 mi NW 9.2 mph - N/A   Overcast
6:55 AM 64.4 °F 62.6 °F 94% 29.75 in 8.0 mi NNW 8.1 mph - N/A   Overcast
7:15 AM 64.4 °F 62.6 °F 94% 29.74 in 9.0 mi NNW 6.9 mph - N/A   Overcast
7:35 AM 64.4 °F 62.6 °F 94% 29.75 in 10.0 mi NNW 9.2 mph - N/A   Overcast
7:55 AM 66.2 °F 62.6 °F 88% 29.75 in 10.0 mi NNW 9.2 mph - N/A   Overcast
8:15 AM 66.2 °F 62.6 °F 88% 29.75 in 10.0 mi NNW 8.1 mph - N/A   Overcast
8:35 AM 66.2 °F 62.6 °F 88% 29.75 in 10.0 mi NNW 8.1 mph - N/A   Overcast
8:55 AM 66.2 °F 62.6 °F 88% 29.75 in 10.0 mi North 9.2 mph - N/A   Overcast
9:15 AM 66.2 °F 62.6 °F 88% 29.75 in 9.0 mi NNW 9.2 mph - N/A Rain Light Rain
9:35 AM 66.2 °F 62.6 °F 88% 29.76 in 10.0 mi North 10.4 mph - N/A   Scattered Clouds
9:55 AM 66.2 °F 60.8 °F 83% 29.76 in 10.0 mi North 11.5 mph - N/A   Mostly Cloudy
10:15 AM 64.4 °F 62.6 °F 94% 29.76 in 3.0 mi NNW 11.5 mph - N/A Rain Light Rain
10:35 AM 64.4 °F 60.8 °F 88% 29.76 in 6.0 mi North 11.5 mph - N/A Rain Light Rain
10:55 AM 66.2 °F 64.4 °F 94% 29.76 in 10.0 mi North 10.4 mph - 0.01 in Rain Light Rain
11:15 AM 68.0 °F 64.4 °F 88% 29.76 in 10.0 mi North 12.7 mph - N/A   Scattered Clouds
11:35 AM 68.0 °F 62.6 °F 83% 29.77 in 10.0 mi North 13.8 mph - N/A   Overcast
11:55 AM 68.0 °F 62.6 °F 83% 29.77 in 10.0 mi North 16.1 mph - 0.01 in   Mostly Cloudy
12:15 PM 68.0 °F 60.8 °F 78% 29.77 in 10.0 mi North 15.0 mph 20.7 mph N/A   Mostly Cloudy
12:35 PM 68.0 °F 62.6 °F 83% 29.78 in 10.0 mi NNE 16.1 mph - N/A   Mostly Cloudy
12:55 PM 69.8 °F 62.6 °F 78% 29.78 in 10.0 mi NNE 13.8 mph - N/A   Mostly Cloudy
1:15 PM 68.0 °F 62.6 °F 83% 29.78 in 10.0 mi North 15.0 mph - N/A   Mostly Cloudy
1:35 PM 69.8 °F 62.6 °F 78% 29.79 in 10.0 mi North 18.4 mph - N/A   Mostly Cloudy
1:55 PM 71.6 °F 62.6 °F 73% 29.79 in 10.0 mi North 17.3 mph - N/A   Scattered Clouds
2:15 PM 71.6 °F 60.8 °F 69% 29.79 in 10.0 mi North 19.6 mph - N/A   Scattered Clouds
2:35 PM 71.6 °F 60.8 °F 69% 29.79 in 10.0 mi North 23.0 mph 31.1 mph N/A   Mostly Cloudy
2:55 PM 69.8 °F 60.8 °F 73% 29.80 in 10.0 mi North 21.9 mph 29.9 mph N/A   Mostly Cloudy
3:15 PM 69.8 °F 60.8 °F 73% 29.81 in 10.0 mi North 23.0 mph 28.8 mph N/A   Mostly Cloudy
3:35 PM 69.8 °F 60.8 °F 73% 29.81 in 10.0 mi North 17.3 mph 27.6 mph N/A   Mostly Cloudy
3:55 PM 68.0 °F 59.0 °F 73% 29.82 in 10.0 mi North 20.7 mph - N/A   Mostly Cloudy
4:15 PM 68.0 °F 59.0 °F 73% 29.82 in 10.0 mi North 18.4 mph 28.8 mph N/A   Partly Cloudy
4:35 PM 66.2 °F 60.8 °F 83% 29.83 in 10.0 mi North 19.6 mph 25.3 mph N/A   Light Drizzle
4:55 PM 66.2 °F 59.0 °F 78% 29.83 in 10.0 mi North 17.3 mph 25.3 mph N/A   Mostly Cloudy
5:15 PM 66.2 °F 60.8 °F 83% 29.83 in 10.0 mi NNE 18.4 mph 25.3 mph N/A   Mostly Cloudy
5:35 PM 68.0 °F 59.0 °F 73% 29.83 in 10.0 mi NNE 18.4 mph 28.8 mph N/A   Mostly Cloudy
5:55 PM 68.0 °F 59.0 °F 73% 29.84 in 10.0 mi North 12.7 mph 24.2 mph N/A   Overcast
6:15 PM 68.0 °F 59.0 °F 73% 29.84 in 10.0 mi North 16.1 mph 23.0 mph N/A   Mostly Cloudy
6:35 PM 68.0 °F 59.0 °F 73% 29.84 in 10.0 mi North 20.7 mph - N/A   Overcast
6:55 PM 68.0 °F 57.2 °F 68% 29.85 in 10.0 mi NNE 18.4 mph 25.3 mph N/A   Mostly Cloudy
7:15 PM 68.0 °F 57.2 °F 68% 29.85 in 10.0 mi NNE 16.1 mph 24.2 mph N/A   Mostly Cloudy
7:35 PM 68.0 °F 59.0 °F 73% 29.86 in 10.0 mi North 15.0 mph 23.0 mph N/A   Mostly Cloudy
7:55 PM 66.2 °F 57.2 °F 73% 29.87 in 10.0 mi North 13.8 mph 21.9 mph N/A   Mostly Cloudy
8:15 PM 66.2 °F 57.2 °F 73% 29.87 in 10.0 mi North 12.7 mph 18.4 mph N/A   Overcast
8:35 PM 66.2 °F 59.0 °F 78% 29.87 in 10.0 mi North 11.5 mph - N/A   Overcast
8:55 PM 64.4 °F 59.0 °F 83% 29.88 in 10.0 mi North 8.1 mph - N/A   Mostly Cloudy
9:15 PM 64.4 °F 59.0 °F 83% 29.89 in 10.0 mi North 6.9 mph - N/A   Overcast
9:35 PM 64.4 °F 59.0 °F 83% 29.89 in 10.0 mi North 6.9 mph - N/A   Mostly Cloudy
9:55 PM 64.4 °F 60.8 °F 88% 29.90 in 10.0 mi North 8.1 mph - N/A   Mostly Cloudy
10:15 PM 64.4 °F 59.0 °F 83% 29.90 in 10.0 mi North 10.4 mph - N/A   Overcast
10:35 PM 64.4 °F 59.0 °F 83% 29.90 in 10.0 mi North 9.2 mph - N/A   Overcast
10:55 PM 64.4 °F 59.0 °F 83% 29.90 in 10.0 mi North 10.4 mph - N/A   Overcast
11:15 PM 64.4 °F 59.0 °F 83% 29.91 in 10.0 mi North 9.2 mph - N/A   Overcast
11:35 PM 64.4 °F 59.0 °F 83% 29.91 in 10.0 mi North 10.4 mph - N/A   Overcast
11:55 PM 64.4 °F 59.0 °F 83% 29.91 in 10.0 mi North 10.4 mph - N/A   Overcast